Time;durP1;ratioP1;P1;durP2;ratioP2;P2;SDS_P1;SDS_P2;PMS_P1;PMS_P2;Temp;Humidity;BMP_temperature;BMP_pressure;BME280_temperature;BME280_humidity;BME280_pressure;Samples;Min_cycle;Max_cycle;Signal;HPM_P1;HPM_P2
2022/04/25 00:01:53;;;;;;;1.55;1.13;;;;;;;8.38;100.00;95672.66;4992626;28;20037;-67
2022/04/25 00:04:18;;;;;;;2.75;1.52;;;;;;;8.40;100.00;95673.06;4991861;28;20041;-67
2022/04/25 00:06:44;;;;;;;1.92;1.33;;;;;;;8.35;100.00;95674.16;4996109;28;20034;-68
2022/04/25 00:09:09;;;;;;;4.22;1.23;;;;;;;8.32;100.00;95679.59;4988038;28;20039;-66
2022/04/25 00:11:35;;;;;;;3.38;1.30;;;;;;;8.21;100.00;95682.22;4973427;28;20027;-68
2022/04/25 00:14:00;;;;;;;3.60;1.20;;;;;;;8.14;100.00;95679.44;4973395;28;20038;-67
2022/04/25 00:16:26;;;;;;;1.73;1.42;;;;;;;8.12;100.00;95685.28;4972336;28;20333;-67
2022/04/25 00:18:52;;;;;;;1.95;1.10;;;;;;;8.17;100.00;95679.47;4972956;28;20137;-67
2022/04/25 00:21:17;;;;;;;1.48;1.15;;;;;;;8.28;100.00;95682.28;4974129;28;20039;-66
2022/04/25 00:23:43;;;;;;;1.45;1.20;;;;;;;8.37;100.00;95679.25;4974665;28;20113;-65
2022/04/25 00:26:09;;;;;;;2.38;1.20;;;;;;;8.37;100.00;95676.53;4972972;28;20081;-66
2022/04/25 00:28:34;;;;;;;1.52;1.38;;;;;;;8.41;100.00;95672.69;4973374;28;20042;-66
2022/04/25 00:31:01;;;;;;;1.63;1.30;;;;;;;8.41;100.00;95672.69;4972726;28;20538;-66
2022/04/25 00:33:27;;;;;;;1.65;1.30;;;;;;;8.55;100.00;95674.78;4970774;28;20041;-65
2022/04/25 00:35:52;;;;;;;1.88;1.23;;;;;;;8.58;100.00;95675.94;4970976;28;20031;-66
2022/04/25 00:38:18;;;;;;;1.90;1.20;;;;;;;8.60;100.00;95673.63;4972061;28;20030;-69
2022/04/25 00:40:44;;;;;;;1.40;1.13;;;;;;;8.63;100.00;95681.06;4972087;28;20058;-68
2022/04/25 00:43:09;;;;;;;1.70;1.48;;;;;;;8.59;100.00;95674.81;4954546;28;20042;-66
2022/04/25 00:45:35;;;;;;;1.30;1.15;;;;;;;8.59;100.00;95678.31;4971245;28;20037;-69
2022/04/25 00:48:01;;;;;;;3.10;1.42;;;;;;;8.59;100.00;95678.31;4970517;28;20043;-66
2022/04/25 00:50:27;;;;;;;1.95;1.30;;;;;;;8.58;100.00;95670.50;4971863;28;20026;-66
2022/04/25 00:52:52;;;;;;;1.60;1.35;;;;;;;8.50;100.00;95672.38;4972138;28;20062;-65
2022/04/25 00:55:18;;;;;;;1.65;1.27;;;;;;;8.36;100.00;95674.97;4970495;28;20488;-68
2022/04/25 00:57:44;;;;;;;1.40;1.15;;;;;;;8.35;100.00;95671.44;4971510;28;20042;-68
2022/04/25 01:00:11;;;;;;;1.92;1.40;;;;;;;8.42;100.00;95673.47;4971772;28;20031;-67
2022/04/25 01:02:37;;;;;;;2.15;1.33;;;;;;;8.45;100.00;95669.22;4971621;28;20062;-66
2022/04/25 01:05:04;;;;;;;1.50;1.30;;;;;;;8.52;100.00;95672.78;4971941;28;20027;-67
2022/04/25 01:07:31;;;;;;;2.17;1.23;;;;;;;8.57;100.00;95668.91;4985737;28;20397;-67
2022/04/25 01:09:56;;;;;;;2.65;1.38;;;;;;;8.46;100.00;95668.06;4962192;28;20123;-67
2022/04/25 01:12:22;;;;;;;2.20;1.33;;;;;;;8.53;100.00;95665.38;4971817;28;20035;-66
2022/04/25 01:14:56;;;;;;;1.63;1.30;;;;;;;8.59;100.00;95675.56;4970551;28;20121;-66
2022/04/25 01:17:21;;;;;;;2.45;1.50;;;;;;;8.62;100.00;95663.09;4970351;28;20039;-67
2022/04/25 01:19:47;;;;;;;3.70;1.50;;;;;;;8.72;100.00;95667.88;4986051;28;20427;-67
2022/04/25 01:22:14;;;;;;;1.80;1.33;;;;;;;8.70;100.00;95669.41;4969929;28;20089;-65
2022/04/25 01:27:26;;;;;;;2.33;1.73;;;;;;;8.82;100.00;95674.56;4970875;28;20027;-65
2022/04/25 01:29:53;;;;;;;2.67;1.50;;;;;;;8.64;100.00;95674.44;4970258;28;20050;-66
2022/04/25 01:32:21;;;;;;;2.05;1.50;;;;;;;8.62;100.00;95674.03;4971218;28;20041;-67
2022/04/25 01:34:47;;;;;;;5.43;1.33;;;;;;;8.59;100.00;95674.81;4971495;28;20091;-67
2022/04/25 01:37:14;;;;;;;2.22;1.45;;;;;;;8.48;100.00;95677.44;4970888;28;20031;-67
2022/04/25 01:39:41;;;;;;;2.92;1.63;;;;;;;8.47;100.00;95672.38;4972082;28;20110;-67
2022/04/25 01:42:08;;;;;;;2.40;1.70;;;;;;;8.51;100.00;95676.66;4978604;28;20058;-66
2022/04/25 01:44:35;;;;;;;2.40;1.80;;;;;;;8.50;100.00;95677.03;4979397;28;20062;-66
2022/04/25 01:47:00;;;;;;;2.33;1.75;;;;;;;8.45;100.00;95678.19;4973634;28;20035;-66
2022/04/25 01:49:26;;;;;;;2.38;1.60;;;;;;;8.53;100.00;95684.50;4981927;28;20037;-68
2022/04/25 01:51:52;;;;;;;2.45;1.60;;;;;;;8.58;100.00;95679.47;4972557;28;20049;-65
2022/04/25 01:54:25;;;;;;;2.08;1.60;;;;;;;8.65;100.00;95686.16;4974798;28;20042;-66
2022/04/25 01:56:51;;;;;;;3.65;1.45;;;;;;;8.70;100.00;95681.13;4974796;28;20295;-67
2022/04/25 01:59:16;;;;;;;2.17;1.60;;;;;;;8.67;100.00;95683.81;4974903;28;20034;-66
2022/04/25 02:01:43;;;;;;;2.28;1.58;;;;;;;8.60;100.00;95684.53;4974663;28;20035;-65
2022/04/25 02:04:08;;;;;;;2.13;1.40;;;;;;;8.67;100.00;95683.81;4974911;28;20035;-67
2022/04/25 02:06:34;;;;;;;2.10;1.50;;;;;;;8.56;100.00;95686.47;4972763;28;20035;-67
2022/04/25 02:09:00;;;;;;;3.92;1.90;;;;;;;8.56;100.00;95686.47;4968919;28;20046;-67
2022/04/25 02:11:25;;;;;;;2.42;1.63;;;;;;;8.56;100.00;95686.47;4955643;28;20386;-66
2022/04/25 02:13:52;;;;;;;3.83;1.55;;;;;;;8.56;100.00;95686.47;4955688;28;20094;-67
2022/04/25 02:16:19;;;;;;;2.40;1.80;;;;;;;8.58;100.00;95686.88;4954258;28;20039;-67
2022/04/25 02:18:44;;;;;;;2.58;1.80;;;;;;;8.53;100.00;95689.94;4954867;28;20035;-68
2022/04/25 02:21:10;;;;;;;1.98;1.63;;;;;;;8.49;100.00;95691.88;4955251;29;20089;-66
2022/04/25 02:23:36;;;;;;;2.65;1.70;;;;;;;8.39;100.00;95693.31;4955164;29;20737;-65
2022/04/25 02:26:02;;;;;;;2.78;2.10;;;;;;;8.46;100.00;95689.88;4954451;28;20031;-67
2022/04/25 02:28:27;;;;;;;3.00;1.92;;;;;;;8.52;100.00;95693.84;4954846;29;20444;-69
2022/04/25 02:30:53;;;;;;;3.15;2.00;;;;;;;8.46;100.00;95698.84;4955090;28;20046;-69
2022/04/25 02:33:19;;;;;;;2.33;1.92;;;;;;;8.43;100.00;95691.44;4969823;28;20047;-67
2022/04/25 02:35:45;;;;;;;2.53;1.77;;;;;;;8.45;100.00;95704.72;4954450;28;20039;-67
2022/04/25 02:38:10;;;;;;;1.80;1.58;;;;;;;8.50;100.00;95698.88;4955379;28;20078;-67
2022/04/25 02:40:36;;;;;;;2.22;1.80;;;;;;;8.45;100.00;95700.03;4954859;28;20038;-68
2022/04/25 02:43:02;;;;;;;2.60;1.90;;;;;;;8.49;100.00;95692.66;4969776;28;20500;-67
2022/04/25 02:45:27;;;;;;;3.28;1.92;;;;;;;8.47;100.00;95702.38;4959500;28;20038;-68
2022/04/25 02:47:53;;;;;;;1.80;1.50;;;;;;;8.41;100.00;95696.47;4973505;28;20045;-68
2022/04/25 02:50:19;;;;;;;3.78;2.00;;;;;;;8.32;100.00;95715.88;4972956;28;20023;-68
2022/04/25 02:52:45;;;;;;;2.45;1.90;;;;;;;8.37;100.00;95709.25;4973668;28;20065;-67
2022/04/25 02:55:10;;;;;;;3.25;2.25;;;;;;;8.42;100.00;95712.47;4973837;28;20125;-68
2022/04/25 02:57:35;;;;;;;2.95;1.95;;;;;;;8.45;100.00;95710.94;4973139;28;20175;-69
2022/04/25 03:00:01;;;;;;;3.70;1.75;;;;;;;8.41;100.00;95710.88;4972152;28;20031;-69
2022/04/25 03:02:27;;;;;;;2.03;1.42;;;;;;;8.41;100.00;95721.78;4973464;28;20045;-68
2022/04/25 03:04:52;;;;;;;1.85;1.40;;;;;;;8.41;100.00;95715.56;4973936;28;20040;-68
2022/04/25 03:07:18;;;;;;;2.30;1.65;;;;;;;8.39;100.00;95718.66;4972804;28;20027;-68
2022/04/25 03:09:43;;;;;;;2.72;1.45;;;;;;;8.37;100.00;95722.91;4973520;28;20027;-68
2022/04/25 03:12:09;;;;;;;2.88;1.77;;;;;;;8.49;100.00;95725.38;4973529;28;20038;-68
2022/04/25 03:14:35;;;;;;;2.28;1.55;;;;;;;8.54;100.00;95732.47;4973851;28;20027;-68
2022/04/25 03:17:01;;;;;;;1.98;1.30;;;;;;;8.52;100.00;95735.56;4971982;28;20369;-67
2022/04/25 03:19:27;;;;;;;1.95;1.33;;;;;;;8.54;100.00;95737.91;4974373;28;20039;-66
2022/04/25 03:21:53;;;;;;;1.75;1.30;;;;;;;8.55;100.00;95740.28;4971442;28;20039;-68
2022/04/25 03:24:18;;;;;;;2.08;1.50;;;;;;;8.50;100.00;95748.00;4972210;28;20579;-66
2022/04/25 03:26:44;;;;;;;1.77;1.40;;;;;;;8.55;100.00;95753.13;4981896;28;20065;-65
2022/04/25 03:29:10;;;;;;;1.60;1.45;;;;;;;8.48;100.00;95742.13;4979394;28;20041;-67
2022/04/25 03:31:36;;;;;;;2.83;1.80;;;;;;;8.49;100.00;95754.63;4978558;28;20082;-66
2022/04/25 03:34:03;;;;;;;1.73;1.40;;;;;;;8.47;100.00;95751.50;4985514;28;20090;-67
2022/04/25 03:36:28;;;;;;;1.95;1.40;;;;;;;8.50;100.00;95754.25;4982139;28;20038;-68
2022/04/25 03:38:53;;;;;;;2.47;1.45;;;;;;;8.41;100.00;95757.25;4974818;28;20046;-68
2022/04/25 03:41:20;;;;;;;5.45;1.77;;;;;;;8.36;100.00;95752.16;4974296;28;20030;-68
2022/04/25 03:43:46;;;;;;;3.10;1.48;;;;;;;8.37;100.00;95761.91;4971976;28;20031;-68
2022/04/25 03:46:12;;;;;;;2.25;1.65;;;;;;;8.39;100.00;95754.13;4972401;28;20030;-68
2022/04/25 03:48:41;;;;;;;2.35;1.83;;;;;;;8.37;100.00;95761.91;4974172;28;20053;-69
2022/04/25 03:51:07;;;;;;;3.30;2.05;;;;;;;8.45;100.00;95762.78;4973965;28;20424;-69
2022/04/25 03:53:32;;;;;;;3.00;2.00;;;;;;;8.50;100.00;95765.19;4971934;28;20130;-67
2022/04/25 03:58:41;;;;;;;2.75;2.03;;;;;;;8.57;100.00;95769.91;4973990;28;20373;-68
2022/04/25 04:01:06;;;;;;;3.17;2.08;;;;;;;8.50;100.00;95767.91;4976555;28;20046;-68
2022/04/25 04:03:34;;;;;;;3.80;2.38;;;;;;;8.41;100.00;95773.63;4973728;28;20115;-68
2022/04/25 04:06:00;;;;;;;3.47;2.15;;;;;;;8.39;100.00;95775.97;4973148;28;20034;-66
2022/04/25 04:08:25;;;;;;;3.10;2.28;;;;;;;8.42;100.00;95779.91;4975632;28;20089;-68
2022/04/25 04:10:51;;;;;;;3.60;2.42;;;;;;;8.46;100.00;95777.97;4973232;28;20030;-69
2022/04/25 04:13:16;;;;;;;3.50;2.60;;;;;;;8.49;100.00;95782.69;4973773;28;20030;-69
2022/04/25 04:15:42;;;;;;;8.60;5.68;;;;;;;8.54;100.00;95785.09;4973764;28;20539;-70
2022/04/25 04:18:08;;;;;;;4.25;2.80;;;;;;;8.49;100.00;95792.84;4974079;28;20035;-71
2022/04/25 04:20:33;;;;;;;3.20;2.60;;;;;;;8.36;100.00;95795.81;4977154;28;20034;-69
2022/04/25 04:22:59;;;;;;;4.03;2.55;;;;;;;8.31;100.00;95793.41;4972119;28;20113;-68
2022/04/25 04:25:25;;;;;;;5.30;2.50;;;;;;;8.22;100.00;95798.38;4955598;28;20034;-69
2022/04/25 04:27:50;;;;;;;3.38;2.55;;;;;;;8.24;100.00;95802.28;4974778;28;20050;-68
2022/04/25 04:30:18;;;;;;;4.43;2.85;;;;;;;8.31;100.00;95803.53;4989278;28;20410;-69
2022/04/25 04:32:44;;;;;;;4.07;2.88;;;;;;;8.27;100.00;95800.78;4972943;28;20031;-69
2022/04/25 04:35:11;;;;;;;3.70;2.92;;;;;;;8.23;100.00;95805.41;4980219;28;20525;-69
2022/04/25 04:37:38;;;;;;;5.10;3.35;;;;;;;8.18;100.00;95816.66;4972290;28;20150;-68
2022/04/25 04:42:50;;;;;;;9.10;4.25;;;;;;;8.19;100.00;95816.28;4974261;28;20426;-70
2022/04/25 04:45:16;;;;;;;5.95;4.30;;;;;;;8.18;100.00;95819.38;4972372;28;20110;-70
2022/04/25 04:47:42;;;;;;;6.45;3.72;;;;;;;8.29;100.00;95822.22;4971838;28;20039;-70
2022/04/25 04:50:14;;;;;;;6.35;4.40;;;;;;;8.44;100.00;95832.16;4973966;28;20047;-69
2022/04/25 04:52:44;;;;;;;7.00;4.75;;;;;;;8.53;100.00;95821.72;4973203;28;20118;-69
2022/04/25 04:55:10;;;;;;;6.47;4.50;;;;;;;8.61;100.00;95822.59;4974969;28;20034;-70
2022/04/25 04:57:35;;;;;;;12.27;7.40;;;;;;;8.65;100.00;95837.06;4972870;28;20106;-70
2022/04/25 05:00:01;;;;;;;14.93;8.50;;;;;;;8.68;100.00;95833.59;4973371;28;20115;-68
2022/04/25 05:02:26;;;;;;;9.18;5.85;;;;;;;8.76;100.00;95837.16;4976017;28;20057;-70
2022/04/25 05:04:53;;;;;;;7.10;5.05;;;;;;;8.79;100.00;95834.47;4972305;28;20049;-70
2022/04/25 05:07:19;;;;;;;6.55;4.78;;;;;;;8.88;100.00;95836.13;4953702;28;20035;-68
2022/04/25 05:09:44;;;;;;;6.82;5.10;;;;;;;8.95;100.00;95844.38;4973457;28;20502;-69
2022/04/25 05:12:10;;;;;;;6.30;4.90;;;;;;;8.98;100.00;95843.59;4973539;28;20034;-69
2022/04/25 05:14:36;;;;;;;6.75;4.95;;;;;;;9.02;100.00;95849.09;4973105;28;20037;-70
2022/04/25 05:17:01;;;;;;;5.50;4.38;;;;;;;9.11;100.00;95855.00;4971083;28;20706;-71
2022/04/25 05:19:26;;;;;;;5.57;3.63;;;;;;;9.15;100.00;95855.84;4972070;28;20037;-69
2022/04/25 05:21:52;;;;;;;5.40;3.38;;;;;;;9.10;100.00;95858.94;4974340;28;20062;-70
2022/04/25 05:24:17;;;;;;;6.00;4.18;;;;;;;9.05;100.00;95860.03;4975448;28;20042;-70
2022/04/25 05:26:43;;;;;;;7.75;5.10;;;;;;;9.02;100.00;95860.00;4977944;28;20031;-69
2022/04/25 05:29:08;;;;;;;6.85;4.45;;;;;;;8.96;100.00;95860.34;4977111;28;20540;-70
2022/04/25 05:31:34;;;;;;;6.63;5.43;;;;;;;8.69;100.00;95856.19;4977599;28;20030;-70
2022/04/25 05:34:00;;;;;;;5.80;4.47;;;;;;;8.55;100.00;95857.63;4956612;28;20149;-68
2022/04/25 05:36:25;;;;;;;6.20;5.20;;;;;;;8.54;100.00;95866.97;4975685;28;20035;-69
2022/04/25 05:38:51;;;;;;;8.18;6.30;;;;;;;8.56;100.00;95859.19;4976894;28;20049;-68
2022/04/25 05:41:17;;;;;;;7.68;5.70;;;;;;;8.58;100.00;95864.28;4974977;28;20102;-67
2022/04/25 05:43:43;;;;;;;9.73;6.60;;;;;;;8.61;100.00;95866.28;4975053;28;20035;-69
2022/04/25 05:46:08;;;;;;;9.68;6.30;;;;;;;8.65;100.00;95869.81;4975678;28;20508;-67
2022/04/25 05:54:02;;;;;;;9.40;6.57;;;;;;;8.50;100.00;95857.16;4976207;28;20086;-66
2022/04/25 05:56:28;;;;;;;10.13;7.40;;;;;;;8.46;100.00;95856.34;4991059;28;20030;-67
2022/04/25 05:58:53;;;;;;;9.93;6.70;;;;;;;8.58;100.00;95858.81;4976329;28;20026;-67
2022/04/25 06:01:19;;;;;;;9.25;6.65;;;;;;;8.62;100.00;95865.09;4975111;28;20031;-67
2022/04/25 06:03:44;;;;;;;10.30;6.43;;;;;;;8.58;100.00;95859.59;4975101;28;20066;-68
2022/04/25 06:06:10;;;;;;;9.38;6.70;;;;;;;9.03;100.00;95869.78;4975593;28;20035;-68
2022/04/25 06:08:36;;;;;;;10.63;5.95;;;;;;;9.55;100.00;95865.13;4979493;28;20476;-67
2022/04/25 06:11:02;;;;;;;8.65;4.80;;;;;;;9.95;100.00;95877.84;4980290;28;20092;-68
2022/04/25 06:13:28;;;;;;;7.47;4.60;;;;;;;10.23;100.00;95873.72;4978649;28;20034;-69
2022/04/25 06:15:53;;;;;;;5.75;4.10;;;;;;;10.50;100.00;95874.22;4987541;28;20503;-67
2022/04/25 06:18:19;;;;;;;5.30;3.60;;;;;;;10.81;100.00;95879.41;4979907;28;20034;-67
2022/04/25 06:20:44;;;;;;;4.13;3.33;;;;;;;10.97;100.00;95876.31;4981483;28;20042;-69
2022/04/25 06:23:09;;;;;;;4.40;3.17;;;;;;;11.04;100.00;95879.84;4976218;28;20058;-70
2022/04/25 06:25:37;;;;;;;4.18;2.95;;;;;;;10.69;100.00;95883.28;4981144;28;20035;-69
2022/04/25 06:28:04;;;;;;;4.97;3.45;;;;;;;10.38;100.00;95890.22;4978438;28;20038;-69
2022/04/25 06:30:30;;;;;;;5.10;3.80;;;;;;;9.77;100.00;95890.66;4992998;28;20033;-69
2022/04/25 06:33:00;;;;;;;5.13;3.33;;;;;;;9.59;100.00;95895.22;4975683;28;20423;-69
2022/04/25 06:35:26;;;;;;;4.35;3.33;;;;;;;9.56;100.00;95892.09;4975795;28;20039;-68
2022/04/25 06:37:52;;;;;;;4.50;3.33;;;;;;;9.56;100.00;95888.53;4976132;28;20038;-69
2022/04/25 06:40:18;;;;;;;8.93;3.58;;;;;;;9.88;100.00;95891.50;4981763;28;20027;-68
2022/04/25 06:42:45;;;;;;;6.90;3.35;;;;;;;10.22;100.00;95891.28;4992206;28;20057;-68
2022/04/25 06:45:10;;;;;;;5.20;2.70;;;;;;;10.50;100.00;95885.19;4982865;28;20249;-69
2022/04/25 06:47:36;;;;;;;4.80;3.13;;;;;;;10.31;100.00;95889.00;4993016;28;20085;-70
2022/04/25 06:50:01;;;;;;;5.10;3.17;;;;;;;9.99;100.00;95894.28;4975103;28;20031;-69
2022/04/25 06:52:27;;;;;;;5.53;3.33;;;;;;;9.97;100.00;95890.38;4978639;28;20034;-68
2022/04/25 06:54:52;;;;;;;5.40;3.75;;;;;;;10.61;100.00;95887.19;4975013;28;20030;-70
2022/04/25 06:57:18;;;;;;;9.80;4.07;;;;;;;11.03;100.00;95875.53;4976574;28;20033;-70
2022/04/25 06:59:44;;;;;;;5.45;4.03;;;;;;;11.36;100.00;95886.50;4976981;28;20034;-70
2022/04/25 07:02:10;;;;;;;4.57;3.30;;;;;;;11.56;100.00;95890.44;4974112;28;20047;-69
2022/04/25 07:04:36;;;;;;;5.68;3.72;;;;;;;11.53;100.00;95888.47;4977820;28;20634;-69
2022/04/25 07:07:02;;;;;;;5.93;3.58;;;;;;;11.56;100.00;95890.44;4975186;28;20031;-69
2022/04/25 07:09:28;;;;;;;4.63;3.67;;;;;;;11.46;100.00;95889.25;4975626;28;20039;-69
2022/04/25 07:11:53;;;;;;;4.38;3.28;;;;;;;11.62;100.00;95890.81;4974009;28;20027;-67
2022/04/25 07:14:21;;;;;;;8.88;5.63;;;;;;;11.48;100.00;95894.34;4987479;28;20034;-69
2022/04/25 07:16:54;;;;;;;6.65;4.38;;;;;;;11.29;100.00;95898.28;4987030;28;20054;-66
2022/04/25 07:19:20;;;;;;;3.42;2.90;;;;;;;11.02;100.00;95901.38;4964570;28;20583;-67
2022/04/25 07:29:58;;;;;;;5.55;3.30;;;;;;;10.26;100.00;95908.53;4955933;28;20049;-68
2022/04/25 07:32:24;;;;;;;3.88;3.20;;;;;;;10.20;100.00;95912.00;4962199;28;20544;-70
2022/04/25 07:34:50;;;;;;;4.22;2.92;;;;;;;10.19;100.00;95907.69;4957204;28;20045;-70
2022/04/25 07:37:16;;;;;;;5.40;3.20;;;;;;;10.18;100.00;95903.41;4958315;28;20134;-71
2022/04/25 07:39:43;;;;;;;3.58;2.70;;;;;;;10.20;100.00;95903.78;4963442;28;20050;-68
2022/04/25 07:42:09;;;;;;;3.35;2.47;;;;;;;10.07;100.00;95903.34;4960050;28;20049;-69
2022/04/25 07:44:34;;;;;;;5.43;3.17;;;;;;;10.08;100.00;95913.09;4962592;28;20073;-70
2022/04/25 07:47:00;;;;;;;3.17;2.00;;;;;;;10.03;100.00;95910.72;4964283;28;20074;-71
2022/04/25 07:49:26;;;;;;;3.50;2.20;;;;;;;9.99;100.00;95910.72;4959337;28;20105;-70
2022/04/25 07:51:52;;;;;;;5.03;2.88;;;;;;;10.29;100.00;95906.97;4957955;28;20077;-68
2022/04/25 07:54:19;;;;;;;4.28;2.20;;;;;;;10.43;100.00;95906.28;4958734;28;20046;-69
2022/04/25 07:56:45;;;;;;;5.28;2.15;;;;;;;10.46;100.00;95914.50;4963554;28;20046;-70
2022/04/25 07:59:10;;;;;;;3.00;1.95;;;;;;;10.62;100.00;95921.59;4953592;28;20447;-70
2022/04/25 08:01:36;;;;;;;3.85;1.42;;;;;;;10.58;100.00;95918.84;4970548;28;20126;-70
2022/04/25 08:04:02;;;;;;;2.05;1.20;;;;;;;10.30;100.00;95923.00;4964670;28;20050;-70
2022/04/25 08:06:27;;;;;;;1.98;1.27;;;;;;;10.34;100.00;95925.78;4973688;28;20070;-69
2022/04/25 08:08:53;;;;;;;2.78;1.60;;;;;;;10.18;100.00;95928.81;4961890;28;20133;-69
2022/04/25 08:11:20;;;;;;;2.40;1.50;;;;;;;10.02;100.00;95937.31;4958135;28;20050;-69
2022/04/25 08:19:15;;;;;;;5.22;1.40;;;;;;;10.39;100.00;95941.84;4958903;28;20047;-70
2022/04/25 08:21:42;;;;;;;2.53;1.35;;;;;;;10.44;100.00;95940.69;4963899;28;20046;-72
2022/04/25 08:24:08;;;;;;;2.25;1.33;;;;;;;10.58;100.00;95950.94;4957852;28;20530;-68
2022/04/25 08:26:34;;;;;;;2.10;1.30;;;;;;;10.62;100.00;95943.50;4961592;28;20077;-70
2022/04/25 08:28:59;;;;;;;2.97;1.38;;;;;;;10.73;100.00;95941.59;4964115;28;20047;-70
2022/04/25 08:31:26;;;;;;;2.00;1.23;;;;;;;11.03;100.00;95938.53;4957956;28;20143;-68
2022/04/25 08:33:51;;;;;;;2.00;1.20;;;;;;;11.33;100.00;95953.88;4961363;28;20046;-68
2022/04/25 08:36:18;;;;;;;2.47;1.00;;;;;;;11.40;100.00;95956.63;4955800;28;20039;-69
2022/04/25 08:38:44;;;;;;;1.80;1.20;;;;;;;11.53;100.00;95954.28;4963559;28;20142;-70
2022/04/25 08:41:12;;;;;;;5.00;1.65;;;;;;;11.65;100.00;95958.63;4958662;28;20146;-68
2022/04/25 08:43:39;;;;;;;2.10;1.25;;;;;;;11.68;100.00;95949.59;4962715;28;20039;-70
2022/04/25 08:46:07;;;;;;;2.30;1.20;;;;;;;12.44;100.00;95947.53;4957324;28;20039;-68
2022/04/25 08:48:34;;;;;;;1.52;1.00;;;;;;;12.96;96.87;95949.69;4962180;28;20039;-68
2022/04/25 08:51:00;;;;;;;1.88;1.10;;;;;;;13.29;97.08;95953.84;4961258;28;20035;-69
2022/04/25 08:53:27;;;;;;;3.45;1.00;;;;;;;13.05;93.60;95952.78;4956163;28;20043;-68
2022/04/25 08:55:54;;;;;;;1.05;0.77;;;;;;;12.94;94.62;95958.31;4960583;28;20074;-69
2022/04/25 08:58:22;;;;;;;1.42;0.82;;;;;;;12.94;94.45;95965.81;4956111;28;20066;-70
2022/04/25 09:00:47;;;;;;;1.50;0.77;;;;;;;13.14;95.41;95966.88;4963977;28;20066;-72
2022/04/25 09:03:13;;;;;;;1.40;0.90;;;;;;;12.88;91.66;95956.41;4959296;28;20112;-70
2022/04/25 09:05:39;;;;;;;3.35;2.13;;;;;;;13.54;91.13;95958.41;4961533;28;20051;-70
2022/04/25 09:08:05;;;;;;;1.45;0.90;;;;;;;14.33;86.86;95961.28;4957220;28;20554;-67
2022/04/25 09:10:30;;;;;;;1.13;0.80;;;;;;;15.21;79.93;95962.59;4960695;28;20077;-69
2022/04/25 09:12:58;;;;;;;3.10;1.42;;;;;;;16.43;78.27;95954.38;4962571;28;20078;-69
2022/04/25 09:15:24;;;;;;;3.60;0.90;;;;;;;17.18;72.76;95958.44;4956829;28;20711;-70
2022/04/25 09:17:50;;;;;;;4.22;0.80;;;;;;;17.65;68.97;95948.31;4960690;28;20121;-73
2022/04/25 09:20:16;;;;;;;1.10;0.70;;;;;;;18.02;66.30;95960.88;4957821;28;20035;-70
2022/04/25 09:22:42;;;;;;;1.58;1.00;;;;;;;17.37;66.99;95954.06;4964229;28;20043;-67
2022/04/25 09:25:12;;;;;;;9.48;1.42;;;;;;;16.96;70.72;95949.03;4965223;28;20058;-68
2022/04/25 09:27:39;;;;;;;7.38;0.95;;;;;;;16.86;70.19;95950.03;4963745;28;20051;-69
2022/04/25 09:30:16;;;;;;;0.90;0.60;;;;;;;16.51;73.61;95947.53;4959067;28;20039;-66
2022/04/25 09:32:43;;;;;;;7.60;0.82;;;;;;;16.22;73.93;95945.28;4962369;28;20047;-69
2022/04/25 09:35:30;;;;;;;4.82;1.27;;;;;;;15.45;75.16;95943.38;4958011;28;20043;-67
2022/04/25 09:37:57;;;;;;;2.90;0.82;;;;;;;15.45;76.67;95937.84;4962355;28;20053;-70
2022/04/25 09:40:24;;;;;;;0.88;0.70;;;;;;;15.45;75.52;95957.16;4958534;28;21096;-70
2022/04/25 09:43:11;;;;;;;2.03;0.88;;;;;;;14.95;78.04;95955.88;4963084;28;20050;-69
2022/04/25 09:45:40;;;;;;;1.60;0.90;;;;;;;15.10;78.47;95961.97;4961877;28;20496;-70
2022/04/25 09:48:24;;;;;;;1.25;0.70;;;;;;;14.67;77.48;95963.28;4958971;28;20333;-68
2022/04/25 09:50:59;;;;;;;1.38;0.80;;;;;;;14.30;80.05;95961.31;4962911;28;20046;-69
2022/04/25 09:53:45;;;;;;;2.65;1.02;;;;;;;14.43;81.61;95962.34;4957777;28;20051;-69
2022/04/25 09:56:16;;;;;;;1.90;1.17;;;;;;;14.41;82.24;95953.72;4956742;28;20106;-70
2022/04/25 09:58:43;;;;;;;1.42;0.98;;;;;;;15.19;77.76;95948.44;4962372;28;20047;-68
2022/04/25 10:01:11;;;;;;;1.75;0.98;;;;;;;15.61;75.36;95943.53;4958285;28;20047;-70
2022/04/25 10:03:37;;;;;;;1.23;0.80;;;;;;;15.59;74.58;95947.88;4962756;28;20387;-70
2022/04/25 10:06:04;;;;;;;1.88;1.05;;;;;;;14.96;75.81;95942.84;4960138;28;20046;-67
2022/04/25 10:08:32;;;;;;;1.38;0.77;;;;;;;14.58;78.67;95949.22;4964472;28;20397;-68
2022/04/25 10:11:02;;;;;;;1.55;0.93;;;;;;;14.27;80.32;95956.59;4965248;28;20509;-69
2022/04/25 10:13:31;;;;;;;1.67;1.00;;;;;;;14.30;79.98;95951.06;4961999;28;20043;-69
2022/04/25 10:15:57;;;;;;;1.60;1.00;;;;;;;14.32;80.90;95959.69;4964487;28;20045;-69
2022/04/25 10:18:25;;;;;;;1.75;1.02;;;;;;;14.47;78.65;95963.06;4963936;28;20268;-70
2022/04/25 10:20:51;;;;;;;1.00;0.80;;;;;;;14.19;78.36;95961.41;4968603;28;20062;-68
2022/04/25 10:23:17;;;;;;;1.30;0.88;;;;;;;14.08;80.69;95960.72;4965736;28;20495;-69
2022/04/25 10:25:57;;;;;;;6.03;1.10;;;;;;;13.87;79.67;95964.47;4966766;28;20042;-69
2022/04/25 10:28:33;;;;;;;3.63;1.00;;;;;;;13.96;80.88;95962.78;4964488;28;20065;-70
2022/04/25 10:31:02;;;;;;;3.40;0.88;;;;;;;14.25;80.18;95959.00;4971712;28;20045;-68
2022/04/25 10:33:47;;;;;;;5.13;1.33;;;;;;;14.37;80.23;95961.22;4973276;28;20114;-68
2022/04/25 10:36:38;;;;;;;13.23;2.15;;;;;;;14.18;80.64;95961.81;4967196;28;20042;-68
2022/04/25 10:39:14;;;;;;;2.92;1.50;;;;;;;13.66;81.49;95970.91;4965563;28;20411;-66
2022/04/25 10:44:36;;;;;;;2.15;1.20;;;;;;;14.03;81.14;95967.44;4954056;28;20039;-69
2022/04/25 10:47:05;;;;;;;4.70;1.42;;;;;;;14.93;77.32;95971.25;4944583;28;20915;-66
2022/04/25 10:49:45;;;;;;;1.25;0.90;;;;;;;15.10;74.09;95967.50;4946289;28;20134;-69
2022/04/25 10:52:42;;;;;;;1.88;1.17;;;;;;;15.90;73.83;95965.19;4942497;28;20051;-69
2022/04/25 10:55:19;;;;;;;2.53;1.30;;;;;;;13.67;81.44;95970.50;4940946;28;20039;-68
2022/04/25 10:58:04;;;;;;;1.50;1.00;;;;;;;14.59;79.48;95977.56;4960618;28;20059;-70
2022/04/25 11:00:36;;;;;;;1.92;1.25;;;;;;;15.08;75.59;95980.91;4963431;28;20043;-69
2022/04/25 11:03:05;;;;;;;1.90;1.40;;;;;;;15.00;77.36;95984.94;4953144;28;20067;-69
2022/04/25 11:05:30;;;;;;;4.80;1.45;;;;;;;14.78;81.66;95982.44;4968277;28;20456;-69
2022/04/25 11:08:20;;;;;;;2.45;1.40;;;;;;;14.43;87.80;95981.63;4967813;28;20035;-70
2022/04/25 11:10:45;;;;;;;;;;;;;;;14.20;90.73;95982.25;4965919;28;20039;-68
2022/04/25 11:13:15;;;;;;;1.67;0.90;;;;;;;14.38;90.97;95987.56;4965419;28;19925;-71
2022/04/25 11:15:44;;;;;;;3.50;1.90;;;;;;;14.32;93.10;95990.00;4968617;28;20074;-69
2022/04/25 11:18:38;;;;;;;4.10;2.13;;;;;;;14.60;87.89;95996.41;4963827;28;20144;-69
2022/04/25 11:21:13;;;;;;;2.35;1.23;;;;;;;14.69;88.15;95994.00;4943014;28;20042;-67
2022/04/25 11:23:44;;;;;;;1.98;1.10;;;;;;;14.47;87.13;95996.13;4964587;28;20070;-70
2022/04/25 11:26:21;;;;;;;3.97;2.15;;;;;;;14.27;87.10;95997.91;4964903;28;20042;-68
2022/04/25 11:28:58;;;;;;;2.08;1.17;;;;;;;14.69;84.03;96006.97;4963678;28;20111;-70
2022/04/25 11:31:26;;;;;;;2.15;1.20;;;;;;;14.62;85.52;96002.34;4957031;28;20143;-69
2022/04/25 11:33:57;;;;;;;3.15;1.50;;;;;;;15.17;81.87;96003.25;4964268;28;20069;-69
2022/04/25 11:36:24;;;;;;;5.85;1.45;;;;;;;15.16;83.02;96009.19;4972712;28;20556;-69
2022/04/25 11:41:37;;;;;;;6.07;1.23;;;;;;;14.20;82.53;96007.03;4960629;28;20728;-68
2022/04/25 11:44:04;;;;;;;12.93;1.20;;;;;;;14.22;83.66;96012.13;4962901;28;20058;-66
2022/04/25 11:46:31;;;;;;;1.38;1.00;;;;;;;13.92;83.60;96010.81;4961365;28;20043;-69
2022/04/25 11:48:56;;;;;;;2.47;1.10;;;;;;;13.70;86.96;96010.97;4964277;28;20046;-68
2022/04/25 11:51:30;;;;;;;1.60;0.80;;;;;;;14.07;86.55;96019.75;4959352;28;20585;-68
2022/04/25 11:53:58;;;;;;;7.55;1.00;;;;;;;14.29;87.76;96020.31;4965164;28;20047;-69
2022/04/25 11:56:25;;;;;;;3.05;1.10;;;;;;;14.02;86.90;96020.94;4956048;28;20043;-69
2022/04/25 11:58:51;;;;;;;3.95;1.40;;;;;;;13.63;90.42;96023.97;4965578;28;20552;-68
2022/04/25 12:01:40;;;;;;;1.58;0.93;;;;;;;13.91;87.52;96032.03;4958705;28;20042;-68
2022/04/25 12:04:25;;;;;;;2.00;0.80;;;;;;;13.86;86.49;96037.19;4958384;28;20078;-68
2022/04/25 12:06:51;;;;;;;7.00;1.23;;;;;;;13.71;87.81;96029.03;4963260;28;20603;-68